Avoca, Arkansas
Current Conditions -  °F | °C
As of 8:57 AM on Monday 24 Nov 2014 (Local Time) from KROG Reporting Station
Clear Clear  
Wind Chill: 32°   Ceiling: Unl
Heat Index: 40°   Visibility: 10mi
Dew Point: 30°   Wind: 14mph
Humidity: 68%   Direction: 260°W
Pressure: 29.85"   Gusts: NA
Location:  36.4°N, 94.07°W
Report Text: KROG 241457Z 26012KT 10SM CLR 04/M01 A2985 RMK AO2 SLP109 T00441011 51025
Loading
Personal Weather Stations






























Interactive Weather Map New forecast layout! Learn more

10-Day Weather Forecast

Advertisements
Track Severe Weather on mobile